WetterOnline ( http://www.wetteronline.de )

Wetter aktuell Greifswalder Bodden

Aktuelles Wetter: Greifswalder Oie (12m)

6-stündlich | Neueste Meldungen
Ortszeit Temperatur Wetter
Mo, 24.09. 2:00 11.4° C wolkig
So, 23.09. 20:00 9.7° C leichter Regen
So, 23.09. 14:00 13.9° C bedeckt
So, 23.09. 8:00 10.6° C bewölkt
So, 23.09. 2:00 12.3° C fast wolkenlos
Sa, 22.09. 20:00 13.0° C wolkig
Sa, 22.09. 14:00 15.1° C bewölkt
Sa, 22.09. 8:00 11.9° C bewölkt
Ortszeit Temperatur Wetter
Mo, 24.09. 7:00 11.5° C bewölkt
Mo, 24.09. 6:40 11.6° C wolkig
Mo, 24.09. 6:30 11.6° C bewölkt
Mo, 24.09. 6:20 11.6° C bewölkt
Mo, 24.09. 6:10 11.5° C wolkig
Mo, 24.09. 6:00 11.4° C fast wolkenlos
Mo, 24.09. 5:50 11.4° C wolkenlos
Mo, 24.09. 5:30 11.3° C wolkenlos
Mo, 24.09. 5:00 11.3° C wolkenlos
Mo, 24.09. 4:30 11.6° C fast wolkenlos
Mo, 24.09. 4:00 11.6° C wolkenlos
Ortszeit Relative Feuchte Sichtweite
Mo, 24.09. 2:00 76% 45 km
So, 23.09. 20:00 82% 8 km
So, 23.09. 14:00 68% 21 km
So, 23.09. 8:00 90% 12 km
So, 23.09. 2:00 81% 40 km
Sa, 22.09. 20:00 77% 60 km
Sa, 22.09. 14:00 64% 30 km
Sa, 22.09. 8:00 85% 27 km
Ortszeit Relative Feuchte Sichtweite
Mo, 24.09. 7:00 79% 35 km
Mo, 24.09. 6:40 79% -
Mo, 24.09. 6:30 76% 35 km
Mo, 24.09. 6:20 76% -
Mo, 24.09. 6:10 77% -
Mo, 24.09. 6:00 77% 40 km
Mo, 24.09. 5:50 77% -
Mo, 24.09. 5:30 77% 35 km
Mo, 24.09. 5:00 77% 35 km
Mo, 24.09. 4:30 79% 30 km
Mo, 24.09. 4:00 79% 30 km
Ortszeit Niederschlagsmenge Niederschlagsart
Mo, 24.09. 2:00 0.7 l/m2 in 6 Std. Regen
So, 23.09. 20:00 3 l/m2 in 12 Std. Regen
So, 23.09. 14:00 0.0 l/m2 in 6 Std. -
So, 23.09. 8:00 0.0 l/m2 in 12 Std. -
So, 23.09. 2:00 0.0 l/m2 in 6 Std. -
Sa, 22.09. 20:00 0.2 l/m2 in 12 Std. Regen
Sa, 22.09. 14:00 0.0 l/m2 in 6 Std. -
Sa, 22.09. 8:00 0.6 l/m2 in 12 Std. -
Ortszeit Niederschlagsmenge Niederschlagsart
Mo, 24.09. 7:00 0.0 l/m2 in 1 Std. -
Mo, 24.09. 6:40 keine Meldung -
Mo, 24.09. 6:30 0.0 l/m2 in 1 Std. -
Mo, 24.09. 6:20 keine Meldung -
Mo, 24.09. 6:10 keine Meldung -
Mo, 24.09. 6:00 0.0 l/m2 in 1 Std. -
Mo, 24.09. 5:50 keine Meldung -
Mo, 24.09. 5:30 0.0 l/m2 in 1 Std. -
Mo, 24.09. 5:00 0.0 l/m2 in 1 Std. -
Mo, 24.09. 4:30 0.0 l/m2 in 1 Std. -
Mo, 24.09. 4:00 0.0 l/m2 in 1 Std. -
Ortszeit Stärke Spitze Richtung
km/h Bft. km/h Grad Sektor
Mo, 24.09. 2:00 50 6 61 310° NW
So, 23.09. 20:00 22 4 48 320° NW
So, 23.09. 14:00 29 5 54 250° W
So, 23.09. 8:00 40 6 65 240° SW
So, 23.09. 2:00 54 7 68 250° W
Sa, 22.09. 20:00 47 6 90 240° SW
Sa, 22.09. 14:00 47 6 61 240° SW
Sa, 22.09. 8:00 47 6 76 240° SW
Ortszeit Stärke Spitze Richtung
km/h Bft. km/h Grad Sektor
Mo, 24.09. 7:00 54 7 68 310° NW
Mo, 24.09. 6:40 54 7 - 310° NW
Mo, 24.09. 6:30 52 7 67 300° NW
Mo, 24.09. 6:20 52 7 - 300° NW
Mo, 24.09. 6:10 54 7 - 300° NW
Mo, 24.09. 6:00 56 7 76 300° NW
Mo, 24.09. 5:50 56 7 - 300° NW
Mo, 24.09. 5:30 58 7 76 310° NW
Mo, 24.09. 5:00 59 7 76 310° NW
Mo, 24.09. 4:30 52 7 65 310° NW
Mo, 24.09. 4:00 54 7 68 300° NW
Ortszeit Untergrenze Bedeckung Gattung
total tief tief mittel hoch
Mo, 24.09. 2:00 5400 m 5/8 5/8 - - -
So, 23.09. 20:00 630 m 7/8 7/8 - - -
So, 23.09. 14:00 4200 m 8/8 8/8 - - -
So, 23.09. 8:00 300 m 7/8 7/8 - - -
So, 23.09. 2:00 510 m 1/8 1/8 - - -
Sa, 22.09. 20:00 1800 m 7/8 3/8 - - -
Sa, 22.09. 14:00 1110 m 7/8 7/8 - - -
Sa, 22.09. 8:00 480 m 7/8 6/8 - - -
Ortszeit Bedeckungsgrad in Achtel und Wolkenuntergrenze
Mo, 24.09. 7:00 3(960m) 7(1200m) 8(3900m)
Mo, 24.09. 6:40 3(990m) 7(3900m) 8(4500m)
Mo, 24.09. 6:30 5(1020m) 6(1500m) 7(4500m)
Mo, 24.09. 6:20 5(1020m) 6(1500m) 7(4500m)
Mo, 24.09. 6:10 4(990m) 5(1500m) 6(4500m)
Mo, 24.09. 6:00 2(1020m) 3(1800m)
Mo, 24.09. 5:50 keine Wolken
Mo, 24.09. 5:30 keine Wolken
Mo, 24.09. 5:00 keine Wolken
Mo, 24.09. 4:30 1(600m)
Mo, 24.09. 4:00 keine Wolken
Ortszeit Luftdruck NN (hPa) Tendenz (hPa in 3 Std.)
Mo, 24.09. 2:00 1010 + 2,1
So, 23.09. 20:00 1007 - 0,9
So, 23.09. 14:00 1010 - 1,3
So, 23.09. 8:00 1012 - 0,2
So, 23.09. 2:00 1012 - 0,1
Sa, 22.09. 20:00 1012 - 0,7
Sa, 22.09. 14:00 1013 - 0,2
Sa, 22.09. 8:00 1011 + 1,6
Ortszeit Luftdruck NN (hPa) Tendenz (hPa in 3 Std.)
Mo, 24.09. 7:00 1013 + 1,9
Mo, 24.09. 6:40 1013 keine Meldung
Mo, 24.09. 6:30 1013 + 2,0
Mo, 24.09. 6:20 1013 keine Meldung
Mo, 24.09. 6:10 1013 keine Meldung
Mo, 24.09. 6:00 1013 + 2,2
Mo, 24.09. 5:50 1013 keine Meldung
Mo, 24.09. 5:30 1012 + 2,1
Mo, 24.09. 5:00 1012 + 2,2
Mo, 24.09. 4:30 1012 + 2,3
Mo, 24.09. 4:00 1011 + 2,2
Ortszeit Schneehöhe (cm)
Mo, 24.09. 2:00 -
So, 23.09. 20:00 -
So, 23.09. 14:00 -
So, 23.09. 8:00 -
So, 23.09. 2:00 -
Sa, 22.09. 20:00 -
Sa, 22.09. 14:00 -
Sa, 22.09. 8:00 -
Ortszeit Schneehöhe (cm)
Mo, 24.09. 7:00 -
Mo, 24.09. 6:40 -
Mo, 24.09. 6:30 -
Mo, 24.09. 6:20 -
Mo, 24.09. 6:10 -
Mo, 24.09. 6:00 -
Mo, 24.09. 5:50 -
Mo, 24.09. 5:30 -
Mo, 24.09. 5:00 -
Mo, 24.09. 4:30 -
Mo, 24.09. 4:00 -
Link zu dieser Seite / Seite empfehlen

Das Wetter in ...